createdAt,value
2018-09-26T00:00:56.139Z,87.97
2018-09-26T00:03:27.461Z,88.31
2018-09-26T00:05:56.117Z,88.47
2018-09-26T00:08:24.813Z,88.14
2018-09-26T00:10:53.607Z,88.55
2018-09-26T00:13:22.293Z,88.84
2018-09-26T00:15:51.279Z,88.51
2018-09-26T00:18:20.056Z,88.85
2018-09-26T00:20:48.728Z,88.60
2018-09-26T00:23:17.388Z,88.62
2018-09-26T00:25:46.172Z,88.69
2018-09-26T00:28:14.847Z,89.22
2018-09-26T00:30:43.537Z,89.29
2018-09-26T00:33:12.219Z,89.31
2018-09-26T00:35:40.982Z,88.87
2018-09-26T00:38:09.650Z,89.29
2018-09-26T00:40:38.366Z,89.29
2018-09-26T00:43:07.044Z,89.21
2018-09-26T00:45:35.720Z,89.24
2018-09-26T00:48:04.382Z,89.16
2018-09-26T00:50:33.061Z,89.27
2018-09-26T00:53:01.793Z,89.30
2018-09-26T00:55:30.455Z,89.22
2018-09-26T00:57:59.164Z,89.59
2018-09-26T01:00:27.864Z,89.47
2018-09-26T01:02:56.562Z,89.37
2018-09-26T01:05:25.259Z,89.44
2018-09-26T01:07:53.966Z,89.15
2018-09-26T01:10:22.656Z,89.30
2018-09-26T01:12:51.341Z,89.32
2018-09-26T01:15:20.045Z,89.15
2018-09-26T01:17:48.737Z,89.26
2018-09-26T01:20:17.419Z,89.52
2018-09-26T01:22:46.101Z,89.80
2018-09-26T01:25:14.814Z,89.21
2018-09-26T01:27:43.489Z,89.66
2018-09-26T01:30:12.173Z,89.48
2018-09-26T01:32:40.851Z,89.79
2018-09-26T01:35:09.526Z,89.28
2018-09-26T01:37:38.237Z,89.69
2018-09-26T01:40:07.101Z,89.46
2018-09-26T01:42:35.763Z,89.84
2018-09-26T01:45:05.020Z,89.84
2018-09-26T01:47:33.667Z,89.51
2018-09-26T01:50:02.346Z,89.72
2018-09-26T01:52:31.038Z,90.07
2018-09-26T01:54:59.735Z,89.68
2018-09-26T01:57:28.401Z,90.03
2018-09-26T01:59:57.058Z,90.00
2018-09-26T02:02:25.796Z,90.32
2018-09-26T02:04:54.480Z,90.16
2018-09-26T02:07:23.151Z,89.98
2018-09-26T02:09:51.823Z,89.80
2018-09-26T02:12:20.560Z,90.02
2018-09-26T02:14:49.244Z,90.10
2018-09-26T02:17:17.935Z,90.42
2018-09-26T02:19:46.596Z,90.15
2018-09-26T02:22:15.255Z,90.32
2018-09-26T02:24:43.932Z,90.27
2018-09-26T02:27:12.611Z,90.42
2018-09-26T02:29:41.280Z,90.26
2018-09-26T02:32:10.089Z,90.37
2018-09-26T02:34:38.712Z,90.21
2018-09-26T02:37:08.505Z,90.48
2018-09-26T02:39:37.835Z,89.92
2018-09-26T02:42:06.547Z,89.90
2018-09-26T02:44:35.279Z,90.50
2018-09-26T02:47:04.058Z,90.53
2018-09-26T02:49:32.746Z,90.56
2018-09-26T02:52:01.459Z,90.20
2018-09-26T02:54:30.142Z,90.14
2018-09-26T02:56:58.866Z,90.36
2018-09-26T02:59:27.566Z,90.27
2018-09-26T03:01:56.232Z,90.60
2018-09-26T03:04:24.901Z,90.92
2018-09-26T03:06:53.577Z,90.77
2018-09-26T03:09:22.237Z,90.84
2018-09-26T03:11:50.927Z,90.49
2018-09-26T03:14:19.619Z,90.89
2018-09-26T03:16:48.308Z,90.30
2018-09-26T03:19:17.020Z,90.29
2018-09-26T03:21:45.696Z,90.62
2018-09-26T03:24:14.350Z,90.53
2018-09-26T03:26:43.046Z,90.63
2018-09-26T03:29:11.821Z,91.07
2018-09-26T03:31:40.512Z,91.00
2018-09-26T03:34:09.236Z,91.11
2018-09-26T03:36:37.934Z,90.89
2018-09-26T03:39:07.863Z,91.27
2018-09-26T03:41:41.179Z,90.93
2018-09-26T03:44:09.856Z,91.27
2018-09-26T03:46:38.600Z,90.74
2018-09-26T03:49:07.319Z,91.42
2018-09-26T03:51:36.000Z,91.37
2018-09-26T03:54:04.693Z,91.29
2018-09-26T03:56:33.423Z,91.43
2018-09-26T03:59:02.076Z,91.50
2018-09-26T04:01:30.911Z,91.75
2018-09-26T04:03:59.603Z,91.69
2018-09-26T04:06:28.301Z,91.60
2018-09-26T04:08:57.171Z,91.56
2018-09-26T04:11:25.847Z,91.81
2018-09-26T04:13:54.525Z,91.91
2018-09-26T04:16:23.196Z,91.88
2018-09-26T04:18:51.870Z,91.60
2018-09-26T04:21:20.538Z,91.75
2018-09-26T04:23:49.221Z,91.68
2018-09-26T04:26:18.012Z,92.08
2018-09-26T04:28:46.605Z,91.82
2018-09-26T04:31:15.287Z,91.81
2018-09-26T04:33:44.037Z,91.49
2018-09-26T04:36:12.633Z,91.63
2018-09-26T04:38:41.405Z,91.68
2018-09-26T04:41:09.947Z,92.12
2018-09-26T04:43:38.635Z,91.89
2018-09-26T04:46:07.402Z,91.95
2018-09-26T04:48:36.084Z,92.02
2018-09-26T04:51:04.789Z,92.22
2018-09-26T04:53:33.463Z,92.02
2018-09-26T04:56:02.213Z,91.66
2018-09-26T04:58:31.046Z,91.82
2018-09-26T05:00:59.556Z,92.08
2018-09-26T05:03:28.222Z,92.27
2018-09-26T05:05:56.924Z,92.14
2018-09-26T05:08:25.614Z,91.74
2018-09-26T05:10:54.294Z,92.12
2018-09-26T05:13:22.964Z,91.98
2018-09-26T05:15:51.633Z,92.60
2018-09-26T05:18:20.360Z,92.08
2018-09-26T05:20:49.057Z,92.19
2018-09-26T05:23:17.730Z,92.48
2018-09-26T05:25:46.389Z,92.44
2018-09-26T05:28:15.054Z,92.24
2018-09-26T05:30:43.726Z,91.98
2018-09-26T05:33:12.384Z,91.96
2018-09-26T05:35:41.066Z,92.64
2018-09-26T05:38:09.799Z,92.49
2018-09-26T05:40:38.556Z,92.32
2018-09-26T05:43:07.248Z,92.20
2018-09-26T05:45:35.907Z,92.33
2018-09-26T05:48:04.655Z,92.34
2018-09-26T05:50:33.359Z,92.32
2018-09-26T05:53:02.023Z,92.62
2018-09-26T05:55:30.792Z,92.62
2018-09-26T05:57:59.498Z,92.70
2018-09-26T06:00:28.168Z,92.48
2018-09-26T06:02:56.849Z,92.68
2018-09-26T06:05:25.589Z,93.01
2018-09-26T06:07:54.258Z,92.60
2018-09-26T06:10:22.948Z,92.73
2018-09-26T06:12:51.689Z,92.64
2018-09-26T06:15:20.343Z,92.39
2018-09-26T06:17:49.026Z,92.42
2018-09-26T06:20:17.696Z,92.65
2018-09-26T06:22:46.380Z,92.22
2018-09-26T06:25:15.191Z,92.79
2018-09-26T06:27:43.927Z,93.01
2018-09-26T06:30:12.715Z,92.83
2018-09-26T06:32:41.436Z,92.64
2018-09-26T06:35:10.161Z,92.62
2018-09-26T06:37:38.828Z,93.12
2018-09-26T06:40:07.696Z,92.75
2018-09-26T06:42:36.441Z,93.44
2018-09-26T06:45:05.292Z,92.88
2018-09-26T06:47:34.113Z,93.37
2018-09-26T06:50:02.736Z,93.24
2018-09-26T06:52:31.406Z,93.12
2018-09-26T06:55:00.106Z,93.33
2018-09-26T06:57:28.788Z,93.50
2018-09-26T06:59:57.492Z,93.75
2018-09-26T07:02:26.175Z,93.82
2018-09-26T07:04:54.861Z,94.24
2018-09-26T07:07:23.568Z,94.14
2018-09-26T07:09:52.253Z,94.42
2018-09-26T07:12:20.935Z,94.32
2018-09-26T07:14:49.619Z,94.43
2018-09-26T07:17:23.704Z,94.45
2018-09-26T07:19:52.371Z,94.49
2018-09-26T07:22:21.072Z,94.58
2018-09-26T07:24:49.782Z,94.26
2018-09-26T07:27:18.472Z,94.68
2018-09-26T07:29:47.164Z,94.65
2018-09-26T07:32:15.901Z,95.26
2018-09-26T07:34:44.571Z,95.88
2018-09-26T07:37:13.263Z,95.17
2018-09-26T07:39:41.946Z,95.61
2018-09-26T07:42:10.632Z,95.79
2018-09-26T07:44:39.349Z,96.19
2018-09-26T07:47:08.025Z,95.96
2018-09-26T07:49:36.705Z,96.46
2018-09-26T07:52:05.402Z,96.37
2018-09-26T07:54:34.086Z,96.68
2018-09-26T07:57:02.764Z,96.53
2018-09-26T07:59:31.444Z,96.47
2018-09-26T08:02:00.144Z,96.54
2018-09-26T08:04:28.820Z,97.06
2018-09-26T08:06:57.522Z,97.26
2018-09-26T08:09:26.219Z,97.17
2018-09-26T08:11:54.966Z,97.00
2018-09-26T08:14:23.658Z,97.80
2018-09-26T08:16:52.323Z,97.53
2018-09-26T08:19:21.060Z,98.23
2018-09-26T08:21:49.704Z,98.20
2018-09-26T08:24:18.504Z,98.15
2018-09-26T08:26:47.195Z,97.98
2018-09-26T08:29:15.878Z,98.47
2018-09-26T08:31:44.567Z,98.72
2018-09-26T08:34:13.255Z,98.29
2018-09-26T08:36:41.957Z,98.62
2018-09-26T08:39:12.221Z,98.91
2018-09-26T08:41:40.983Z,98.48
2018-09-26T08:44:10.161Z,98.31
2018-09-26T08:46:38.858Z,98.41
2018-09-26T08:49:07.547Z,98.17
2018-09-26T08:51:36.371Z,98.51
2018-09-26T08:54:05.024Z,98.55
2018-09-26T08:56:33.739Z,98.18
2018-09-26T08:59:02.436Z,98.44
2018-09-26T09:01:36.183Z,98.23
2018-09-26T09:04:04.940Z,98.29
2018-09-26T09:06:33.664Z,97.56
2018-09-26T09:09:02.364Z,97.74
2018-09-26T09:11:31.098Z,97.29
2018-09-26T09:13:59.749Z,97.70
2018-09-26T09:16:28.458Z,97.64
2018-09-26T09:18:57.175Z,97.01
2018-09-26T09:21:25.876Z,96.66
2018-09-26T09:23:54.596Z,97.25
2018-09-26T09:26:23.410Z,96.75
2018-09-26T09:28:52.020Z,96.71
2018-09-26T09:31:20.739Z,96.71
2018-09-26T09:33:49.467Z,96.79
2018-09-26T09:36:18.147Z,96.61
2018-09-26T09:38:46.874Z,96.64
2018-09-26T09:41:15.592Z,96.63
2018-09-26T09:43:44.285Z,96.33
2018-09-26T09:46:12.991Z,96.91
2018-09-26T09:48:41.672Z,96.54
2018-09-26T09:51:10.377Z,96.30
2018-09-26T09:53:39.170Z,96.74
2018-09-26T09:56:07.882Z,96.58
2018-09-26T09:58:36.583Z,97.02
2018-09-26T10:01:10.502Z,96.34
2018-09-26T10:03:39.273Z,96.27
2018-09-26T10:06:07.992Z,96.44
2018-09-26T10:08:36.793Z,96.08
2018-09-26T10:11:05.464Z,96.69
2018-09-26T10:13:34.156Z,96.42
2018-09-26T10:16:02.884Z,96.20
2018-09-26T10:18:31.594Z,95.96
2018-09-26T10:21:00.300Z,96.09
2018-09-26T10:23:29.012Z,95.92
2018-09-26T10:25:57.701Z,96.02
2018-09-26T10:28:26.395Z,95.84
2018-09-26T10:30:55.217Z,95.62
2018-09-26T10:33:23.937Z,95.00
2018-09-26T10:35:52.602Z,95.02
2018-09-26T10:38:21.400Z,94.69
2018-09-26T10:40:50.125Z,94.48
2018-09-26T10:43:18.824Z,94.28
2018-09-26T10:45:47.547Z,94.11
2018-09-26T10:48:16.236Z,93.54
2018-09-26T10:50:44.956Z,93.04
2018-09-26T10:53:13.628Z,93.28
2018-09-26T10:55:42.325Z,91.62
2018-09-26T10:58:11.115Z,92.24
2018-09-26T11:00:39.871Z,91.50
2018-09-26T11:03:08.604Z,91.28
2018-09-26T11:05:37.379Z,89.63
2018-09-26T11:08:06.119Z,89.19
2018-09-26T11:10:34.799Z,88.95
2018-09-26T11:13:03.507Z,88.37
2018-09-26T11:15:32.297Z,87.47
2018-09-26T11:18:01.037Z,86.97
2018-09-26T11:20:29.780Z,86.56
2018-09-26T11:22:58.511Z,85.50
2018-09-26T11:25:27.196Z,85.67
2018-09-26T11:27:55.882Z,85.53
2018-09-26T11:30:24.596Z,85.12
2018-09-26T11:32:53.343Z,85.53
2018-09-26T11:35:22.062Z,85.61
2018-09-26T11:37:50.738Z,85.25
2018-09-26T11:40:19.459Z,84.95
2018-09-26T11:42:48.120Z,85.08
2018-09-26T11:45:16.913Z,84.88
2018-09-26T11:47:45.624Z,84.58
2018-09-26T11:50:14.331Z,84.21
2018-09-26T11:52:43.076Z,84.06
2018-09-26T11:55:11.897Z,83.13
2018-09-26T11:57:40.579Z,81.93
2018-09-26T12:00:09.394Z,80.92
2018-09-26T12:02:38.151Z,79.61
2018-09-26T12:05:06.868Z,77.88
2018-09-26T12:07:35.675Z,77.82
2018-09-26T12:10:04.416Z,75.78
2018-09-26T12:12:33.215Z,74.65
2018-09-26T12:15:01.912Z,73.67
2018-09-26T12:17:30.640Z,72.83
2018-09-26T12:19:59.327Z,72.04
2018-09-26T12:22:28.090Z,71.15
2018-09-26T12:24:56.783Z,69.20
2018-09-26T12:27:25.600Z,67.05
2018-09-26T12:29:54.309Z,65.29
2018-09-26T12:32:23.021Z,60.75
2018-09-26T12:34:51.858Z,58.37
2018-09-26T12:37:20.517Z,55.41
2018-09-26T12:39:49.424Z,53.41
2018-09-26T12:42:18.151Z,50.79
2018-09-26T12:44:46.830Z,46.66
2018-09-26T12:47:15.518Z,45.72
2018-09-26T12:49:44.205Z,43.78
2018-09-26T12:52:12.957Z,43.58
2018-09-26T12:54:41.716Z,43.31
2018-09-26T12:57:10.404Z,44.04
2018-09-26T12:59:39.103Z,44.29
2018-09-26T13:02:07.852Z,44.99
2018-09-26T13:04:36.750Z,45.31
2018-09-26T13:07:05.452Z,46.41
2018-09-26T13:09:34.188Z,45.28
2018-09-26T13:12:02.884Z,45.91
2018-09-26T13:14:31.573Z,45.67
2018-09-26T13:17:00.334Z,45.96
2018-09-26T13:19:29.094Z,46.06
2018-09-26T13:21:57.736Z,46.67
2018-09-26T13:24:26.421Z,46.79
2018-09-26T13:26:55.111Z,46.73
2018-09-26T13:29:23.797Z,47.49
2018-09-26T13:31:52.554Z,48.26
2018-09-26T13:34:21.284Z,48.99
2018-09-26T13:36:49.944Z,49.48
2018-09-26T13:39:18.665Z,50.04
2018-09-26T13:41:47.485Z,50.35
2018-09-26T13:44:16.195Z,50.23
2018-09-26T13:46:44.893Z,50.20
2018-09-26T13:49:13.637Z,50.39
2018-09-26T13:51:42.316Z,50.55
2018-09-26T13:54:11.025Z,50.38
2018-09-26T13:56:39.736Z,50.49
2018-09-26T13:59:08.417Z,50.57
2018-09-26T14:01:37.226Z,50.48
2018-09-26T14:04:05.991Z,50.71
2018-09-26T14:06:34.680Z,50.68
2018-09-26T14:09:03.460Z,51.22
2018-09-26T14:11:32.149Z,52.01
2018-09-26T14:14:00.833Z,52.33
2018-09-26T14:16:29.539Z,52.51
2018-09-26T14:18:58.216Z,51.42
2018-09-26T14:21:26.893Z,51.44
2018-09-26T14:23:55.661Z,51.39
2018-09-26T14:26:24.432Z,52.12
2018-09-26T14:28:53.157Z,51.14
2018-09-26T14:31:21.880Z,51.53
2018-09-26T14:33:50.693Z,50.39
2018-09-26T14:36:19.386Z,50.12
2018-09-26T14:38:48.133Z,49.71
2018-09-26T14:41:16.852Z,49.07
2018-09-26T14:43:45.549Z,48.89
2018-09-26T14:46:14.281Z,48.25
2018-09-26T14:48:42.987Z,48.10
2018-09-26T14:51:11.720Z,49.66
2018-09-26T14:53:40.419Z,50.25
2018-09-26T14:56:09.151Z,51.15
2018-09-26T14:58:37.875Z,51.15
2018-09-26T15:01:06.751Z,51.72
2018-09-26T15:03:35.421Z,51.50
2018-09-26T15:06:04.169Z,50.61
2018-09-26T15:08:32.848Z,50.84
2018-09-26T15:11:01.548Z,50.33
2018-09-26T15:13:30.273Z,49.38
2018-09-26T15:15:59.088Z,48.84
2018-09-26T15:18:27.793Z,48.24
2018-09-26T15:20:56.580Z,48.12
2018-09-26T15:23:25.272Z,48.00
2018-09-26T15:25:53.980Z,48.29
2018-09-26T15:28:22.754Z,47.99
2018-09-26T15:30:51.452Z,47.68
2018-09-26T15:33:20.157Z,46.84
2018-09-26T15:35:49.460Z,45.99
2018-09-26T15:38:18.191Z,44.48
2018-09-26T15:40:46.864Z,44.17
2018-09-26T15:43:15.592Z,44.00
2018-09-26T15:45:44.355Z,43.88
2018-09-26T15:48:13.092Z,42.17
2018-09-26T15:50:41.964Z,41.46
2018-09-26T15:53:10.656Z,42.08
2018-09-26T15:55:39.357Z,42.24
2018-09-26T15:58:08.082Z,41.33
2018-09-26T16:00:36.761Z,41.13
2018-09-26T16:03:05.459Z,39.60
2018-09-26T16:05:34.116Z,40.29
2018-09-26T16:08:02.794Z,39.91
2018-09-26T16:10:31.494Z,40.19
2018-09-26T16:13:00.153Z,40.27
2018-09-26T16:15:28.815Z,39.50
2018-09-26T16:17:57.482Z,41.67
2018-09-26T16:20:26.202Z,42.59
2018-09-26T16:22:54.875Z,43.60
2018-09-26T16:25:24.081Z,44.77
2018-09-26T16:27:52.999Z,44.63
2018-09-26T16:30:21.741Z,44.80
2018-09-26T16:32:50.343Z,45.41
2018-09-26T16:35:19.027Z,45.81
2018-09-26T16:37:47.710Z,46.63
2018-09-26T16:40:16.528Z,47.95
2018-09-26T16:42:45.195Z,49.11
2018-09-26T16:45:13.926Z,50.13
2018-09-26T16:47:42.592Z,50.35
2018-09-26T16:50:11.247Z,51.46
2018-09-26T16:52:39.906Z,52.45
2018-09-26T16:55:08.681Z,53.17
2018-09-26T16:57:37.540Z,53.86
2018-09-26T17:00:06.287Z,53.61
2018-09-26T17:02:34.999Z,54.21
2018-09-26T17:05:03.834Z,54.68
2018-09-26T17:07:32.550Z,55.41
2018-09-26T17:10:01.244Z,56.32
2018-09-26T17:12:30.016Z,56.30
2018-09-26T17:14:58.734Z,57.12
2018-09-26T17:17:27.479Z,57.73
2018-09-26T17:19:56.177Z,58.87
2018-09-26T17:22:25.064Z,59.71
2018-09-26T17:24:53.570Z,61.26
2018-09-26T17:27:22.223Z,62.04
2018-09-26T17:29:50.932Z,63.01
2018-09-26T17:32:19.655Z,64.18
2018-09-26T17:34:48.492Z,64.24
2018-09-26T17:37:17.122Z,65.07
2018-09-26T17:39:45.809Z,65.98
2018-09-26T17:42:14.641Z,66.16
2018-09-26T17:44:43.256Z,66.97
2018-09-26T17:47:11.985Z,67.52
2018-09-26T17:49:40.677Z,68.23
2018-09-26T17:52:09.372Z,68.89
2018-09-26T17:54:38.231Z,69.92
2018-09-26T17:57:06.941Z,70.85
2018-09-26T17:59:35.773Z,71.40
2018-09-26T18:02:04.570Z,71.94
2018-09-26T18:04:33.368Z,72.17
2018-09-26T18:07:07.771Z,72.30
2018-09-26T18:09:36.577Z,72.49
2018-09-26T18:12:05.444Z,72.77
2018-09-26T18:14:34.249Z,73.33
2018-09-26T18:17:11.686Z,73.29
2018-09-26T18:19:40.456Z,73.79
2018-09-26T18:22:09.268Z,73.70
2018-09-26T18:24:38.136Z,74.03
2018-09-26T18:27:07.225Z,74.23
2018-09-26T18:29:36.175Z,74.48
2018-09-26T18:32:05.213Z,74.33
2018-09-26T18:34:34.007Z,75.09
2018-09-26T18:37:03.196Z,75.56
2018-09-26T18:39:32.052Z,75.84
2018-09-26T18:42:00.760Z,75.94
2018-09-26T18:44:29.763Z,76.30
2018-09-26T18:46:58.415Z,76.36
2018-09-26T18:49:27.086Z,76.50
2018-09-26T18:51:55.865Z,76.69
2018-09-26T18:54:24.556Z,76.91
2018-09-26T18:56:53.301Z,77.03
2018-09-26T18:59:22.130Z,77.28
2018-09-26T19:01:50.802Z,77.36
2018-09-26T19:04:19.544Z,77.71
2018-09-26T19:06:48.350Z,78.07
2018-09-26T19:09:17.071Z,78.38
2018-09-26T19:11:45.857Z,79.08
2018-09-26T19:14:14.504Z,79.09
2018-09-26T19:16:43.201Z,79.37
2018-09-26T19:19:11.976Z,79.56
2018-09-26T19:21:40.660Z,79.63
2018-09-26T19:24:09.358Z,79.67
2018-09-26T19:26:38.269Z,79.88
2018-09-26T19:29:07.139Z,79.82
2018-09-26T19:31:35.825Z,79.99
2018-09-26T19:34:04.617Z,80.31
2018-09-26T19:36:33.368Z,80.26
2018-09-26T19:39:02.190Z,80.48
2018-09-26T19:41:30.872Z,80.51
2018-09-26T19:43:59.676Z,80.79
2018-09-26T19:46:28.356Z,80.97
2018-09-26T19:48:57.057Z,81.17
2018-09-26T19:51:25.808Z,81.22
2018-09-26T19:53:54.508Z,81.12
2018-09-26T19:56:23.335Z,81.16
2018-09-26T19:58:51.963Z,81.14
2018-09-26T20:01:20.639Z,81.39
2018-09-26T20:03:49.362Z,81.54
2018-09-26T20:06:18.073Z,81.46
2018-09-26T20:08:46.845Z,81.47
2018-09-26T20:11:15.516Z,81.65
2018-09-26T20:13:44.235Z,81.75
2018-09-26T20:16:13.078Z,81.92
2018-09-26T20:18:41.833Z,81.98
2018-09-26T20:21:10.601Z,82.04
2018-09-26T20:23:39.274Z,82.11
2018-09-26T20:26:07.932Z,82.10
2018-09-26T20:28:36.636Z,82.14
2018-09-26T20:31:12.679Z,82.47
2018-09-26T20:33:41.472Z,82.56
2018-09-26T20:36:10.313Z,82.29
2018-09-26T20:38:39.056Z,82.54
2018-09-26T20:41:07.857Z,82.46
2018-09-26T20:43:36.568Z,82.27
2018-09-26T20:46:05.510Z,82.68
2018-09-26T20:48:34.185Z,82.48
2018-09-26T20:51:02.904Z,82.67
2018-09-26T20:53:31.609Z,82.54
2018-09-26T20:56:00.328Z,82.71
2018-09-26T20:58:29.060Z,82.77
2018-09-26T21:00:57.780Z,82.76
2018-09-26T21:03:26.455Z,82.98
2018-09-26T21:05:55.108Z,83.02
2018-09-26T21:08:23.779Z,83.20
2018-09-26T21:10:52.556Z,82.91
2018-09-26T21:13:21.285Z,82.92
2018-09-26T21:15:49.982Z,82.94
2018-09-26T21:18:18.643Z,82.92
2018-09-26T21:20:47.336Z,82.99
2018-09-26T21:23:16.158Z,83.00
2018-09-26T21:25:44.761Z,83.05
2018-09-26T21:28:13.512Z,83.13
2018-09-26T21:30:42.255Z,82.84
2018-09-26T21:33:12.176Z,83.10
2018-09-26T21:35:40.907Z,83.16
2018-09-26T21:38:09.602Z,83.32
2018-09-26T21:40:39.181Z,83.31
2018-09-26T21:43:08.048Z,83.08
2018-09-26T21:45:36.734Z,83.14
2018-09-26T21:48:05.441Z,83.23
2018-09-26T21:50:34.168Z,83.17
2018-09-26T21:53:03.040Z,82.96
2018-09-26T21:55:31.730Z,82.83
2018-09-26T21:58:00.380Z,82.78
2018-09-26T22:00:29.104Z,82.76
2018-09-26T22:02:57.815Z,82.67
2018-09-26T22:05:26.536Z,82.81
2018-09-26T22:07:55.223Z,82.46
2018-09-26T22:10:23.904Z,82.50
2018-09-26T22:12:52.559Z,82.26
2018-09-26T22:15:23.534Z,82.89
2018-09-26T22:17:53.367Z,82.72
2018-09-26T22:20:22.099Z,82.39
2018-09-26T22:22:50.927Z,82.91
2018-09-26T22:25:19.763Z,82.79
2018-09-26T22:27:48.591Z,82.18
2018-09-26T22:30:17.291Z,82.22
2018-09-26T22:32:45.988Z,82.36
2018-09-26T22:35:14.684Z,82.53
2018-09-26T22:37:43.404Z,82.32
2018-09-26T22:40:12.148Z,82.61
2018-09-26T22:42:40.859Z,82.85
2018-09-26T22:45:09.553Z,82.68
2018-09-26T22:47:38.292Z,82.70
2018-09-26T22:50:07.031Z,82.48
2018-09-26T22:52:35.689Z,82.67
2018-09-26T22:55:04.454Z,82.30
2018-09-26T22:57:33.154Z,82.84
2018-09-26T23:00:01.860Z,82.98
2018-09-26T23:02:30.656Z,82.58
2018-09-26T23:04:59.320Z,82.62
2018-09-26T23:07:28.029Z,82.47
2018-09-26T23:09:56.726Z,83.14
2018-09-26T23:12:25.517Z,83.05
2018-09-26T23:14:54.231Z,82.83
2018-09-26T23:17:22.972Z,83.02
2018-09-26T23:19:51.646Z,82.84
2018-09-26T23:22:20.333Z,82.82
2018-09-26T23:24:49.021Z,83.45
2018-09-26T23:27:17.739Z,83.74
2018-09-26T23:29:46.476Z,83.50
2018-09-26T23:32:24.143Z,83.13
2018-09-26T23:34:52.848Z,83.28
2018-09-26T23:37:21.581Z,83.34
2018-09-26T23:39:50.281Z,83.39
2018-09-26T23:42:18.980Z,83.74
2018-09-26T23:44:47.754Z,83.56
2018-09-26T23:47:16.486Z,83.79
2018-09-26T23:49:45.178Z,83.33
2018-09-26T23:52:13.859Z,83.56
2018-09-26T23:54:42.597Z,83.44
2018-09-26T23:57:11.308Z,84.12
2018-09-26T23:59:39.971Z,83.49
